This is the latest recevied weather packets stored in our database for station/object WB8ZGM-13. If no packets are shown the sender has not sent any weather packets the latest 1 day(s).
| Time | Temp. | Humidity | Pressure | Rain* | Wind** | Luminosity | Snow |
|---|---|---|---|---|---|---|---|
| 1778009241 | 23.89° C | 56% | 992.4 hPa | 0 mm | 2.24 m/s, 340° | - | - |
| 1778008311 | 24.44° C | 59% | 992.7 hPa | 0 mm | 2.68 m/s, 143° | - | - |
| 1778007382 | 22.78° C | 62% | 992.7 hPa | 0 mm | 0.45 m/s, 150° | - | - |
| 1778006451 | 22.22° C | 65% | 992.6 hPa | 0 mm | 0 m/s | - | - |
| 1778005521 | 21.67° C | 66% | 993.2 hPa | 0 mm | 3.58 m/s, 84° | - | - |
| 1778004621 | 21.67° C | 67% | 993.6 hPa | 0 mm | 1.34 m/s, 165° | - | - |
| 1778003721 | 22.22° C | 66% | 993.7 hPa | 0 mm | 2.24 m/s, 213° | - | - |
| 1778002821 | 21.67° C | 67% | 994.5 hPa | 0 mm | 0.45 m/s, 63° | - | - |
| 1778001891 | 21.67° C | 67% | 994.9 hPa | 0 mm | 0.45 m/s, 152° | - | - |
| 1778000961 | 21.67° C | 68% | 995 hPa | 0 mm | 0.45 m/s, 93° | - | - |
| 1778000031 | 21.67° C | 66% | 995.1 hPa | 0 mm | 0.45 m/s, 202° | - | - |
| 1777999131 | 22.78° C | 65% | 995.5 hPa | 0 mm | 2.68 m/s, 270° | - | - |
| 1777998201 | 22.78° C | 64% | 995.5 hPa | 0 mm | 0.89 m/s, 271° | - | - |
| 1777997300 | 22.78° C | 64% | 995.5 hPa | 0 mm | 2.24 m/s, 337° | - | - |
| 1777996371 | 22.22° C | 66% | 995.5 hPa | 0 mm | 0.89 m/s, 213° | - | - |
| 1777995440 | 22.22° C | 66% | 995.5 hPa | 0 mm | 1.34 m/s, 127° | - | - |
| 1777994540 | 22.22° C | 66% | 995.3 hPa | 0 mm | 2.24 m/s, 32° | - | - |
| 1777993610 | 22.22° C | 67% | 995.2 hPa | 0 mm | 2.24 m/s, 296° | - | - |
| 1777992680 | 21.67° C | 68% | 995 hPa | 0 mm | 1.34 m/s, 224° | - | - |
| 1777991780 | 21.11° C | 69% | 994.9 hPa | 0 mm | 2.68 m/s, 189° | - | - |
| 1777990850 | 20° C | 72% | 994.9 hPa | 0 mm | 2.24 m/s, 217° | - | - |
| 1777989950 | 20° C | 72% | 994.9 hPa | 0 mm | 1.34 m/s, 112° | - | - |
| 1777989050 | 19.44° C | 73% | 994.6 hPa | 0 mm | 0.89 m/s, 179° | - | - |
| 1777988150 | 19.44° C | 73% | 994.5 hPa | 0 mm | 1.34 m/s, 210° | - | - |
| 1777987250 | 18.33° C | 74% | 994.5 hPa | 0 mm | 1.34 m/s, 168° | - | - |
* Rain latest hour (hover to see other rain measurements)
** Current wind speed in m/s (hover to see current wind gust speed)